Time;durP1;ratioP1;P1;durP2;ratioP2;P2;SDS_P1;SDS_P2;PMS_P1;PMS_P2;Temp;Humidity;BMP_temperature;BMP_pressure;BME280_temperature;BME280_humidity;BME280_pressure;Samples;Min_cycle;Max_cycle;Signal;HPM_P1;HPM_P2
2022/04/18 00:02:07;;;;;;;0.40;0.40;;;6.70;65.60;;;;;;5033300;28;21005;-77
2022/04/18 00:04:34;;;;;;;0.40;0.30;;;6.70;65.70;;;;;;5033608;28;20442;-76
2022/04/18 00:07:03;;;;;;;0.30;0.30;;;6.70;66.10;;;;;;5033558;28;20455;-76
2022/04/18 00:09:30;;;;;;;0.50;0.40;;;6.70;66.60;;;;;;5033243;28;20799;-76
2022/04/18 00:11:57;;;;;;;13.43;0.80;;;6.70;68.50;;;;;;5033481;28;20493;-76
2022/04/18 00:14:24;;;;;;;0.30;0.30;;;6.80;69.70;;;;;;5033259;28;20446;-76
2022/04/18 00:16:51;;;;;;;0.30;0.30;;;6.70;69.70;;;;;;5033271;28;20895;-76
2022/04/18 00:19:18;;;;;;;0.40;0.37;;;6.70;70.90;;;;;;5033295;28;20446;-76
2022/04/18 00:21:45;;;;;;;0.30;0.30;;;6.70;70.30;;;;;;5033073;28;20845;-76
2022/04/18 00:24:14;;;;;;;0.80;0.50;;;6.60;70.00;;;;;;5033403;28;20447;-76
2022/04/18 00:26:42;;;;;;;0.30;0.20;;;6.50;69.90;;;;;;5033425;28;20821;-76
2022/04/18 00:29:09;;;;;;;0.37;0.30;;;6.40;70.90;;;;;;5033045;28;20954;-76
2022/04/18 00:31:36;;;;;;;0.40;0.40;;;6.30;69.90;;;;;;5033232;28;20490;-76
2022/04/18 00:34:02;;;;;;;0.87;0.87;;;6.30;71.10;;;;;;5033466;28;20454;-76
2022/04/18 00:36:29;;;;;;;0.30;0.30;;;6.20;70.60;;;;;;5033463;28;20457;-76
2022/04/18 00:38:56;;;;;;;0.30;0.30;;;6.20;70.50;;;;;;5034453;28;20485;-76
2022/04/18 00:41:24;;;;;;;2.00;0.50;;;6.10;71.50;;;;;;5037507;28;20467;-76
2022/04/18 00:43:52;;;;;;;0.30;0.30;;;6.10;72.10;;;;;;5036884;28;20471;-76
2022/04/18 00:46:21;;;;;;;0.40;0.40;;;6.10;72.40;;;;;;5035778;28;20443;-76
2022/04/18 00:48:48;;;;;;;0.30;0.20;;;6.10;72.90;;;;;;5035818;28;20442;-76
2022/04/18 00:51:16;;;;;;;0.50;0.50;;;6.00;72.70;;;;;;5035618;28;20489;-76
2022/04/18 00:53:44;;;;;;;0.30;0.23;;;5.90;73.30;;;;;;5035768;28;20447;-76
2022/04/18 00:56:13;;;;;;;0.30;0.30;;;5.90;73.80;;;;;;5035827;28;20450;-76
2022/04/18 00:58:42;;;;;;;0.83;0.50;;;5.80;74.40;;;;;;5035784;28;20450;-76
2022/04/18 01:01:10;;;;;;;0.40;0.40;;;5.80;74.80;;;;;;5035664;28;20512;-76
2022/04/18 01:03:37;;;;;;;0.30;0.30;;;5.70;75.20;;;;;;5035651;28;20450;-76
2022/04/18 01:06:05;;;;;;;0.30;0.30;;;5.70;76.20;;;;;;5035848;28;20461;-76
2022/04/18 01:08:35;;;;;;;0.73;0.63;;;5.70;76.80;;;;;;5035654;28;20478;-76
2022/04/18 01:11:05;;;;;;;0.30;0.30;;;5.70;77.50;;;;;;5038296;28;20486;-77
2022/04/18 01:13:39;;;;;;;0.50;0.50;;;5.70;78.00;;;;;;5043895;28;20461;-77
2022/04/18 01:16:07;;;;;;;0.30;0.23;;;5.70;77.50;;;;;;5045585;28;20438;-77
2022/04/18 01:18:34;;;;;;;0.40;0.30;;;5.70;77.80;;;;;;5046200;28;20449;-76
2022/04/18 01:21:02;;;;;;;0.50;0.40;;;5.60;77.60;;;;;;5042851;28;20455;-76
2022/04/18 01:23:29;;;;;;;0.93;0.93;;;5.60;77.70;;;;;;5039315;28;20458;-76
2022/04/18 01:31:24;;;;;;;1.13;0.70;;;5.40;79.00;;;;;;5035234;28;21120;-76
2022/04/18 01:33:51;;;;;;;0.30;0.27;;;5.40;80.00;;;;;;5035398;28;20473;-76
2022/04/18 01:36:19;;;;;;;0.30;0.27;;;5.40;80.50;;;;;;5035333;28;20446;-76
2022/04/18 01:38:46;;;;;;;0.30;0.30;;;5.30;80.30;;;;;;5034829;28;20950;-76
2022/04/18 01:41:13;;;;;;;0.30;0.30;;;5.30;81.10;;;;;;5035021;28;20945;-76
2022/04/18 01:43:39;;;;;;;0.40;0.40;;;5.20;81.40;;;;;;5031044;28;109007;-76
2022/04/18 01:46:06;;;;;;;0.40;0.40;;;5.20;81.90;;;;;;5035436;28;20454;-76
2022/04/18 01:48:33;;;;;;;0.30;0.27;;;5.20;82.60;;;;;;5036074;28;20447;-76
2022/04/18 01:51:00;;;;;;;0.40;0.40;;;5.10;83.00;;;;;;5035589;28;20466;-76
2022/04/18 01:53:30;;;;;;;0.30;0.30;;;5.10;83.30;;;;;;5035952;28;20458;-76
2022/04/18 01:55:57;;;;;;;0.77;0.27;;;5.10;84.10;;;;;;5036112;28;20488;-76
2022/04/18 01:58:23;;;;;;;0.30;0.30;;;5.00;84.40;;;;;;5036048;28;20446;-76
2022/04/18 02:00:50;;;;;;;0.30;0.30;;;5.00;83.80;;;;;;5035756;28;20454;-76
2022/04/18 02:03:17;;;;;;;0.73;0.60;;;5.00;83.90;;;;;;5035708;28;20902;-76
2022/04/18 02:05:44;;;;;;;0.37;0.37;;;5.00;82.30;;;;;;5035887;28;20455;-76
2022/04/18 02:08:11;;;;;;;0.40;0.30;;;5.00;82.20;;;;;;5035852;28;20449;-77
2022/04/18 02:10:39;;;;;;;0.50;0.50;;;5.00;83.90;;;;;;5035746;28;20454;-76
2022/04/18 02:13:06;;;;;;;0.40;0.40;;;5.00;85.00;;;;;;5036225;28;20486;-76
2022/04/18 02:15:34;;;;;;;0.30;0.30;;;4.90;85.80;;;;;;5035722;28;20446;-76
2022/04/18 02:18:00;;;;;;;0.40;0.30;;;5.00;87.00;;;;;;5035435;28;21025;-76
2022/04/18 02:20:27;;;;;;;0.30;0.30;;;5.00;86.20;;;;;;5035631;28;20451;-76
2022/04/18 02:22:56;;;;;;;0.50;0.50;;;5.00;86.80;;;;;;5035339;28;20450;-76
2022/04/18 02:25:23;;;;;;;0.63;0.47;;;4.90;86.60;;;;;;5035345;28;20450;-76
2022/04/18 02:27:52;;;;;;;0.30;0.30;;;4.90;87.80;;;;;;5035133;28;20450;-76
2022/04/18 02:30:19;;;;;;;0.90;0.90;;;4.90;88.80;;;;;;5035635;28;20451;-76
2022/04/18 02:32:49;;;;;;;0.30;0.30;;;4.90;89.20;;;;;;5035256;28;20487;-76
2022/04/18 02:35:18;;;;;;;0.30;0.30;;;4.80;90.00;;;;;;5035619;28;20787;-76
2022/04/18 02:37:45;;;;;;;0.30;0.30;;;4.80;90.50;;;;;;5035029;28;20435;-76
2022/04/18 02:40:12;;;;;;;0.47;0.47;;;4.70;90.80;;;;;;5035307;28;20447;-76
2022/04/18 02:42:40;;;;;;;0.40;0.40;;;4.70;91.00;;;;;;5034872;28;20467;-76
2022/04/18 02:45:09;;;;;;;0.30;0.30;;;4.70;90.90;;;;;;5034935;28;20489;-76
2022/04/18 02:47:36;;;;;;;0.30;0.30;;;4.70;91.40;;;;;;5035041;28;20454;-76
2022/04/18 02:50:03;;;;;;;0.30;0.30;;;4.70;88.60;;;;;;5035088;28;20462;-76
2022/04/18 02:52:31;;;;;;;0.70;0.37;;;4.80;90.60;;;;;;5034822;28;20509;-76
2022/04/18 02:54:58;;;;;;;0.40;0.30;;;4.90;91.30;;;;;;5034995;28;20439;-76
2022/04/18 02:57:24;;;;;;;0.40;0.30;;;4.90;91.90;;;;;;5034548;28;20820;-76
2022/04/18 02:59:51;;;;;;;0.30;0.27;;;5.00;91.60;;;;;;5034567;28;20438;-76
2022/04/18 03:02:19;;;;;;;0.40;0.40;;;5.00;91.60;;;;;;5033787;28;20459;-76
2022/04/18 03:04:46;;;;;;;0.43;0.43;;;4.90;91.60;;;;;;5034755;28;20442;-76
2022/04/18 03:07:13;;;;;;;0.30;0.30;;;4.90;91.60;;;;;;5034424;28;20958;-76
2022/04/18 03:09:39;;;;;;;0.30;0.30;;;4.90;91.80;;;;;;5034674;28;20442;-76
2022/04/18 03:12:07;;;;;;;0.30;0.30;;;4.80;91.40;;;;;;5034194;28;21052;-76
2022/04/18 03:14:34;;;;;;;0.30;0.30;;;4.80;91.70;;;;;;5034554;28;20515;-76
2022/04/18 03:17:01;;;;;;;0.30;0.30;;;4.70;92.00;;;;;;5034848;28;20455;-76
2022/04/18 03:19:29;;;;;;;1.43;0.60;;;4.70;92.60;;;;;;5034458;28;20447;-76
2022/04/18 03:21:55;;;;;;;0.30;0.20;;;4.60;93.00;;;;;;5034318;28;20497;-76
2022/04/18 03:24:22;;;;;;;0.30;0.30;;;4.60;92.90;;;;;;5034426;28;20447;-76
2022/04/18 03:26:49;;;;;;;0.30;0.30;;;4.50;93.50;;;;;;5034019;28;20454;-76
2022/04/18 03:29:15;;;;;;;0.40;0.40;;;4.50;93.40;;;;;;5034121;28;20438;-76
2022/04/18 03:31:42;;;;;;;0.40;0.30;;;4.40;93.40;;;;;;5034050;28;20486;-76
2022/04/18 03:34:09;;;;;;;0.40;0.40;;;4.40;94.20;;;;;;5033820;28;20961;-76
2022/04/18 03:42:09;;;;;;;0.40;0.40;;;4.30;95.20;;;;;;5046726;28;20437;-77
2022/04/18 03:44:39;;;;;;;0.30;0.30;;;4.20;95.30;;;;;;5043025;28;20483;-76
2022/04/18 03:47:06;;;;;;;0.30;0.30;;;4.20;95.80;;;;;;5039214;28;20438;-76
2022/04/18 03:49:32;;;;;;;0.93;0.40;;;4.10;96.40;;;;;;5036532;28;20455;-76
2022/04/18 03:52:00;;;;;;;0.50;0.50;;;4.10;97.00;;;;;;5034515;28;20482;-76
2022/04/18 03:54:27;;;;;;;3.30;0.57;;;4.00;97.50;;;;;;5033938;28;20946;-76
2022/04/18 03:56:54;;;;;;;0.30;0.30;;;4.10;97.90;;;;;;5034075;28;20450;-76
2022/04/18 03:59:21;;;;;;;0.40;0.40;;;4.10;97.70;;;;;;5033873;28;20443;-76
2022/04/18 04:01:47;;;;;;;0.40;0.30;;;4.10;97.90;;;;;;5033954;28;20471;-76
2022/04/18 04:04:14;;;;;;;0.30;0.30;;;4.10;98.10;;;;;;5033720;28;20446;-76
2022/04/18 04:06:41;;;;;;;0.70;0.70;;;4.10;98.70;;;;;;5033466;28;20442;-76
2022/04/18 04:09:09;;;;;;;0.30;0.30;;;4.10;99.00;;;;;;5033800;28;20466;-76
2022/04/18 04:11:36;;;;;;;0.40;0.30;;;4.10;99.50;;;;;;5033447;28;20466;-76
2022/04/18 04:14:02;;;;;;;0.30;0.30;;;4.00;99.30;;;;;;5033501;28;20454;-76
2022/04/18 04:16:29;;;;;;;0.40;0.40;;;4.00;99.70;;;;;;5034220;28;20443;-76
2022/04/18 04:18:56;;;;;;;0.60;0.40;;;3.90;99.90;;;;;;5033710;28;20447;-75
2022/04/18 04:21:22;;;;;;;0.60;0.60;;;3.90;99.90;;;;;;5033681;28;20462;-76
2022/04/18 04:23:49;;;;;;;0.30;0.30;;;3.70;99.90;;;;;;5033876;28;20446;-76
2022/04/18 04:26:17;;;;;;;0.30;0.30;;;3.70;99.90;;;;;;5033808;28;20450;-76
2022/04/18 04:28:44;;;;;;;0.30;0.30;;;3.70;99.90;;;;;;5033434;28;20961;-76
2022/04/18 04:31:11;;;;;;;0.30;0.30;;;3.70;99.90;;;;;;5033582;28;20469;-76
2022/04/18 04:33:38;;;;;;;0.40;0.40;;;3.80;99.10;;;;;;5033384;28;20491;-76
2022/04/18 04:36:05;;;;;;;1.80;0.50;;;3.90;98.40;;;;;;5033768;28;20454;-76
2022/04/18 04:38:31;;;;;;;0.30;0.30;;;3.90;98.10;;;;;;5033862;28;20814;-76
2022/04/18 04:40:58;;;;;;;0.30;0.30;;;4.10;97.50;;;;;;5033749;28;20462;-76
2022/04/18 04:43:28;;;;;;;3.00;0.70;;;4.10;97.20;;;;;;5033620;28;20442;-76
2022/04/18 04:45:56;;;;;;;0.30;0.30;;;4.20;96.80;;;;;;5033788;28;20513;-76
2022/04/18 04:48:22;;;;;;;0.40;0.30;;;4.20;96.60;;;;;;5033610;28;20493;-76
2022/04/18 04:50:49;;;;;;;0.30;0.30;;;4.30;96.70;;;;;;5033768;28;20478;-76
2022/04/18 04:53:16;;;;;;;0.30;0.30;;;4.30;96.40;;;;;;5033607;28;20493;-76
2022/04/18 04:55:43;;;;;;;0.30;0.30;;;4.30;96.30;;;;;;5033353;28;20938;-76
2022/04/18 04:58:10;;;;;;;0.30;0.30;;;4.30;96.40;;;;;;5033167;28;20454;-76
2022/04/18 05:00:38;;;;;;;0.40;0.40;;;4.40;96.40;;;;;;5033241;28;20446;-76
2022/04/18 05:03:06;;;;;;;0.30;0.30;;;4.50;96.50;;;;;;5033417;28;20450;-76
2022/04/18 05:05:33;;;;;;;0.70;0.43;;;4.50;96.00;;;;;;5033307;28;20496;-76
2022/04/18 05:08:00;;;;;;;0.80;0.50;;;4.60;95.90;;;;;;5033323;28;20446;-76
2022/04/18 05:10:27;;;;;;;0.30;0.30;;;4.70;95.70;;;;;;5032886;28;20454;-77
2022/04/18 05:12:53;;;;;;;0.30;0.20;;;4.80;96.10;;;;;;5033035;28;20482;-76
2022/04/18 05:15:20;;;;;;;0.50;0.50;;;4.80;96.40;;;;;;5033054;28;20454;-77
2022/04/18 05:17:49;;;;;;;0.30;0.30;;;4.90;96.40;;;;;;5032907;28;20462;-76
2022/04/18 05:20:15;;;;;;;0.40;0.40;;;4.90;95.90;;;;;;5032840;28;20478;-76
2022/04/18 05:22:43;;;;;;;4.63;0.60;;;4.90;97.20;;;;;;5033040;28;20470;-76
2022/04/18 05:25:10;;;;;;;0.30;0.30;;;4.90;97.00;;;;;;5034478;28;20520;-76
2022/04/18 05:27:36;;;;;;;0.30;0.30;;;4.90;96.60;;;;;;5036726;28;20450;-76
2022/04/18 05:30:04;;;;;;;0.93;0.50;;;5.00;97.40;;;;;;5036606;28;20450;-76
2022/04/18 05:32:30;;;;;;;0.30;0.30;;;5.00;96.40;;;;;;5036359;28;20490;-76
2022/04/18 05:34:58;;;;;;;0.30;0.20;;;5.00;96.10;;;;;;5036574;28;20454;-76
2022/04/18 05:37:26;;;;;;;0.60;0.60;;;5.00;95.40;;;;;;5036535;28;20446;-76
2022/04/18 05:39:52;;;;;;;0.30;0.20;;;5.20;95.30;;;;;;5036680;28;20435;-76
2022/04/18 05:42:23;;;;;;;0.30;0.20;;;5.20;95.20;;;;;;5036092;28;20974;-76
2022/04/18 05:44:49;;;;;;;0.57;0.57;;;5.30;95.00;;;;;;5036063;28;20485;-76
2022/04/18 05:47:16;;;;;;;0.97;0.50;;;5.40;96.20;;;;;;5036309;28;20458;-76
2022/04/18 05:49:43;;;;;;;0.30;0.30;;;5.60;97.40;;;;;;5036874;28;20805;-76
2022/04/18 05:52:13;;;;;;;0.30;0.30;;;5.80;97.10;;;;;;5037617;28;20466;-76
2022/04/18 05:54:40;;;;;;;0.40;0.40;;;5.90;97.10;;;;;;5037349;28;20509;-76
2022/04/18 05:57:06;;;;;;;0.30;0.20;;;6.20;96.80;;;;;;5036718;28;20439;-76
2022/04/18 05:59:33;;;;;;;0.30;0.30;;;6.40;95.10;;;;;;5036055;28;20457;-76
2022/04/18 06:02:00;;;;;;;0.40;0.40;;;6.60;93.30;;;;;;5035795;28;20470;-77
2022/04/18 06:04:27;;;;;;;0.83;0.80;;;6.80;92.80;;;;;;5035425;28;20962;-77
2022/04/18 06:06:53;;;;;;;0.53;0.50;;;7.20;92.20;;;;;;5036366;28;20450;-77
2022/04/18 06:09:21;;;;;;;0.50;0.50;;;7.60;90.30;;;;;;5038509;28;20450;-77
2022/04/18 06:11:48;;;;;;;0.30;0.20;;;7.70;88.80;;;;;;5036761;28;20470;-77
2022/04/18 06:14:15;;;;;;;0.30;0.23;;;7.90;86.60;;;;;;5035766;28;20494;-76
2022/04/18 06:16:42;;;;;;;0.30;0.20;;;8.00;85.70;;;;;;5035306;28;20435;-77
2022/04/18 06:19:08;;;;;;;0.30;0.30;;;8.20;84.10;;;;;;5035554;28;20450;-76
2022/04/18 06:21:35;;;;;;;0.90;0.50;;;8.30;82.20;;;;;;5035446;28;20470;-77
2022/04/18 06:24:02;;;;;;;0.30;0.30;;;8.40;82.60;;;;;;5035441;28;20443;-76
2022/04/18 06:26:30;;;;;;;0.60;0.40;;;8.60;80.80;;;;;;5035126;28;20942;-77
2022/04/18 06:28:57;;;;;;;0.53;0.50;;;8.90;80.30;;;;;;5035380;28;20459;-76
2022/04/18 06:31:24;;;;;;;0.40;0.40;;;9.30;77.90;;;;;;5035307;28;20826;-76
2022/04/18 06:33:51;;;;;;;0.60;0.30;;;9.60;76.80;;;;;;5035212;28;20561;-76
2022/04/18 06:36:18;;;;;;;1.13;0.40;;;10.30;74.40;;;;;;5034102;28;20432;-77
2022/04/18 06:38:44;;;;;;;0.87;0.40;;;10.90;72.20;;;;;;5035146;28;20450;-75
2022/04/18 06:41:11;;;;;;;1.13;1.13;;;11.40;69.60;;;;;;5035471;28;20471;-75
2022/04/18 06:43:39;;;;;;;1.47;0.40;;;11.70;68.40;;;;;;5034955;28;20486;-75
2022/04/18 06:46:06;;;;;;;0.43;0.40;;;12.00;67.40;;;;;;5034706;28;20453;-75
2022/04/18 06:48:33;;;;;;;0.30;0.30;;;12.50;66.40;;;;;;5035260;28;20443;-74
2022/04/18 06:51:00;;;;;;;0.50;0.33;;;13.00;64.30;;;;;;5034830;28;20479;-75
2022/04/18 06:53:28;;;;;;;1.07;0.40;;;13.30;61.20;;;;;;5035027;28;20479;-75
2022/04/18 06:58:40;;;;;;;0.70;0.70;;;14.20;60.10;;;;;;5034567;28;20409;-74
2022/04/18 07:01:07;;;;;;;1.00;0.50;;;14.80;58.30;;;;;;5034525;28;20459;-74
2022/04/18 07:03:34;;;;;;;0.60;0.47;;;15.80;57.90;;;;;;5034651;28;20492;-74
2022/04/18 07:06:01;;;;;;;2.10;0.70;;;16.70;54.60;;;;;;5034647;28;20455;-74
2022/04/18 07:08:27;;;;;;;1.13;0.50;;;17.10;52.00;;;;;;5034256;28;20451;-74
2022/04/18 07:10:54;;;;;;;1.00;0.90;;;17.70;51.30;;;;;;5034463;28;20474;-74
2022/04/18 07:13:21;;;;;;;1.03;1.03;;;17.90;49.30;;;;;;5034291;28;20485;-75
2022/04/18 07:15:49;;;;;;;1.17;0.80;;;18.00;48.20;;;;;;5034416;28;20453;-75
2022/04/18 07:18:15;;;;;;;0.60;0.60;;;18.40;47.80;;;;;;5034394;28;20450;-74
2022/04/18 07:20:42;;;;;;;0.70;0.70;;;19.10;47.80;;;;;;5034278;28;20450;-75
2022/04/18 07:23:09;;;;;;;2.87;1.23;;;20.30;44.00;;;;;;5034570;28;20446;-75
2022/04/18 07:25:36;;;;;;;0.60;0.60;;;20.80;44.00;;;;;;5034264;28;20207;-76
2022/04/18 07:28:03;;;;;;;0.70;0.70;;;21.50;42.70;;;;;;5034224;28;20209;-75
2022/04/18 07:30:30;;;;;;;1.00;0.90;;;21.80;40.40;;;;;;5034098;28;20214;-75
2022/04/18 07:32:59;;;;;;;0.82;0.82;;;21.90;40.20;;;;;;5034255;28;20670;-75
2022/04/18 07:35:26;;;;;;;1.23;1.13;;;22.50;39.50;;;;;;5034499;28;20237;-75
2022/04/18 07:40:37;;;;;;;1.85;1.30;;;24.00;37.70;;;;;;5033915;28;20210;-75
2022/04/18 07:43:04;;;;;;;2.45;0.82;;;24.30;37.30;;;;;;5034382;28;20562;-75
2022/04/18 07:45:31;;;;;;;0.73;0.73;;;23.80;37.40;;;;;;5033499;28;20330;-76
2022/04/18 07:47:59;;;;;;;1.65;0.85;;;23.80;36.50;;;;;;5033238;28;20675;-75
2022/04/18 07:51:31;;;;;;;1.52;0.95;;;23.10;35.60;;;;;;5033857;28;20282;-76
2022/04/18 07:53:13;;;;;;;2.15;0.90;;;22.20;36.80;;;;;;5033230;28;20313;-75
2022/04/18 07:55:39;;;;;;;1.33;0.88;;;21.80;38.20;;;;;;5033497;28;20210;-76
2022/04/18 07:58:06;;;;;;;1.98;1.30;;;21.50;37.80;;;;;;5033442;28;20662;-76
2022/04/18 08:00:33;;;;;;;0.93;0.77;;;21.20;38.80;;;;;;5033831;28;20286;-75
2022/04/18 08:03:01;;;;;;;1.63;0.98;;;22.00;38.50;;;;;;5033663;28;20567;-75
2022/04/18 08:05:27;;;;;;;0.80;0.80;;;23.00;37.70;;;;;;5033341;28;20205;-76
2022/04/18 08:07:54;;;;;;;4.45;0.95;;;24.20;35.80;;;;;;5033287;28;20194;-75
2022/04/18 08:10:21;;;;;;;0.95;0.85;;;25.30;34.40;;;;;;5033337;28;20200;-76
2022/04/18 08:12:49;;;;;;;1.05;0.90;;;25.10;34.80;;;;;;5033381;28;20308;-76
2022/04/18 08:15:16;;;;;;;0.93;0.93;;;24.90;35.20;;;;;;5033120;28;20679;-76
2022/04/18 08:17:42;;;;;;;2.45;0.90;;;24.80;35.00;;;;;;5033185;28;20187;-75
2022/04/18 08:20:11;;;;;;;1.10;0.70;;;25.30;33.70;;;;;;5033133;28;20202;-76
2022/04/18 08:22:38;;;;;;;1.17;1.08;;;25.10;34.60;;;;;;5033378;28;20230;-76
2022/04/18 08:25:06;;;;;;;1.13;0.98;;;25.00;33.50;;;;;;5033407;28;20300;-76
2022/04/18 08:27:33;;;;;;;1.17;1.08;;;24.50;33.80;;;;;;5033292;28;20197;-76
2022/04/18 08:30:00;;;;;;;1.88;0.90;;;24.50;34.30;;;;;;5033335;28;20200;-75
2022/04/18 08:32:26;;;;;;;1.73;1.02;;;23.90;33.90;;;;;;5032955;28;20729;-75
2022/04/18 08:34:54;;;;;;;0.80;0.80;;;23.70;34.80;;;;;;5032937;28;20727;-76
2022/04/18 08:37:22;;;;;;;1.10;1.00;;;24.10;34.60;;;;;;5033070;28;20200;-75
2022/04/18 08:39:49;;;;;;;1.58;0.90;;;24.90;34.30;;;;;;5033298;28;20222;-75
2022/04/18 08:42:17;;;;;;;1.23;0.80;;;25.20;33.30;;;;;;5033135;28;20289;-75
2022/04/18 08:44:44;;;;;;;1.08;0.98;;;25.00;33.20;;;;;;5032902;28;20734;-76
2022/04/18 08:52:43;;;;;;;0.73;0.73;;;24.10;33.80;;;;;;5033205;28;20213;-75
2022/04/18 08:52:46;;;;;;;0.80;0.80;;;23.70;35.70;;;;;;5033077;28;20223;-75
2022/04/18 08:55:13;;;;;;;0.82;0.77;;;23.70;34.80;;;;;;5033029;28;20215;-74
2022/04/18 08:57:41;;;;;;;1.13;1.02;;;23.10;35.10;;;;;;5033063;28;20570;-75
2022/04/18 09:00:09;;;;;;;3.03;1.00;;;22.70;35.50;;;;;;5034407;28;20624;-75
2022/04/18 09:02:35;;;;;;;1.50;0.98;;;22.70;34.30;;;;;;5036758;28;20250;-74
2022/04/18 09:05:03;;;;;;;1.10;0.77;;;22.70;33.10;;;;;;5036673;28;20566;-74
2022/04/18 09:07:29;;;;;;;1.30;0.80;;;22.40;34.80;;;;;;5036897;28;20207;-75
2022/04/18 09:09:58;;;;;;;0.60;0.60;;;21.90;34.20;;;;;;5036851;28;20210;-75
2022/04/18 09:12:28;;;;;;;0.70;0.60;;;22.40;34.30;;;;;;5036706;28;20227;-74
2022/04/18 09:14:55;;;;;;;0.80;0.80;;;22.20;33.90;;;;;;5036634;28;20222;-75
2022/04/18 09:17:30;;;;;;;1.63;0.90;;;22.60;33.70;;;;;;5036620;28;20211;-74
2022/04/18 09:20:08;;;;;;;0.97;0.90;;;21.80;34.20;;;;;;5036647;28;20249;-75
2022/04/18 09:22:42;;;;;;;0.90;0.80;;;21.40;35.50;;;;;;5036167;28;20223;-75
2022/04/18 09:25:18;;;;;;;0.80;0.80;;;21.30;35.40;;;;;;5036595;28;20430;-75
2022/04/18 09:27:54;;;;;;;0.87;0.50;;;21.50;34.50;;;;;;5036182;28;20481;-75
2022/04/18 09:30:21;;;;;;;2.90;0.90;;;21.50;35.10;;;;;;5036472;28;20501;-74
2022/04/18 09:32:56;;;;;;;0.60;0.60;;;21.40;34.60;;;;;;5036314;28;20470;-74
2022/04/18 09:35:26;;;;;;;1.37;0.60;;;21.30;33.30;;;;;;5036024;28;20473;-75
2022/04/18 09:37:54;;;;;;;1.10;0.60;;;21.10;33.70;;;;;;5036315;28;20519;-74
2022/04/18 09:40:24;;;;;;;0.90;0.80;;;20.90;34.70;;;;;;5035977;28;20995;-74
2022/04/18 09:42:53;;;;;;;0.80;0.80;;;20.90;34.70;;;;;;5036195;28;20478;-74
2022/04/18 09:45:20;;;;;;;0.60;0.60;;;20.80;35.20;;;;;;5035993;28;20555;-74
2022/04/18 09:47:54;;;;;;;1.90;1.07;;;21.30;36.50;;;;;;5036148;28;20446;-74
2022/04/18 09:53:07;;;;;;;0.70;0.70;;;21.20;35.50;;;;;;5035968;28;20413;-76
2022/04/18 09:55:35;;;;;;;1.13;0.70;;;21.10;35.30;;;;;;5035915;28;20481;-74
2022/04/18 09:58:03;;;;;;;0.90;0.60;;;20.70;36.20;;;;;;5035662;28;20945;-74
2022/04/18 10:00:31;;;;;;;0.83;0.83;;;20.80;37.30;;;;;;5035527;28;20948;-75
2022/04/18 10:02:58;;;;;;;0.90;0.90;;;20.90;37.40;;;;;;5035835;28;20450;-75
2022/04/18 10:05:27;;;;;;;1.47;0.50;;;21.10;37.20;;;;;;5035837;28;20482;-75
2022/04/18 10:07:55;;;;;;;0.80;0.80;;;21.00;37.60;;;;;;5035713;28;20991;-74
2022/04/18 10:10:22;;;;;;;0.73;0.70;;;21.00;37.80;;;;;;5035386;28;20438;-75
2022/04/18 10:12:50;;;;;;;2.10;1.07;;;20.70;37.80;;;;;;5035306;28;20465;-74
2022/04/18 10:15:17;;;;;;;1.63;1.17;;;20.60;38.20;;;;;;5035246;28;20875;-75
2022/04/18 10:17:45;;;;;;;1.87;0.90;;;20.60;38.00;;;;;;5035575;28;20450;-75
2022/04/18 10:20:28;;;;;;;1.20;1.10;;;20.60;38.80;;;;;;5035510;28;20458;-73
2022/04/18 10:23:16;;;;;;;2.00;0.87;;;20.50;37.90;;;;;;5035257;28;20452;-76
2022/04/18 10:26:21;;;;;;;1.00;0.80;;;20.10;37.60;;;;;;5035460;28;20448;-75
2022/04/18 10:28:51;;;;;;;1.50;0.80;;;20.20;36.60;;;;;;5034965;28;20914;-76
2022/04/18 10:31:23;;;;;;;1.40;0.70;;;20.70;38.30;;;;;;5035295;28;20470;-76
2022/04/18 10:33:50;;;;;;;0.80;0.67;;;21.10;36.50;;;;;;5035182;28;20435;-75
2022/04/18 10:36:26;;;;;;;1.07;0.70;;;21.70;35.00;;;;;;5035201;28;20446;-75
2022/04/18 10:38:53;;;;;;;0.50;0.50;;;22.20;36.00;;;;;;5035344;28;20453;-75
2022/04/18 10:41:33;;;;;;;1.87;0.70;;;22.60;34.80;;;;;;5035541;28;20470;-76
2022/04/18 10:44:05;;;;;;;0.70;0.70;;;22.60;35.00;;;;;;5034828;28;20238;-76
2022/04/18 10:46:32;;;;;;;1.33;0.77;;;22.90;35.00;;;;;;5035108;28;20195;-76
2022/04/18 10:49:00;;;;;;;1.40;0.80;;;22.90;34.50;;;;;;5034985;28;20210;-75
2022/04/18 10:51:31;;;;;;;0.75;0.70;;;23.00;33.80;;;;;;5035169;28;20226;-75
2022/04/18 10:54:10;;;;;;;0.95;0.82;;;22.90;34.10;;;;;;5034805;28;20234;-75
2022/04/18 10:56:48;;;;;;;1.08;0.75;;;22.80;34.30;;;;;;5034596;28;20671;-76
2022/04/18 10:59:17;;;;;;;0.95;0.93;;;22.90;34.40;;;;;;5034809;28;20199;-76
2022/04/18 11:01:44;;;;;;;0.98;0.73;;;23.00;33.80;;;;;;5034799;28;20227;-76
2022/04/18 11:04:11;;;;;;;0.75;0.70;;;22.90;35.00;;;;;;5034332;28;20669;-76
2022/04/18 11:06:49;;;;;;;0.60;0.60;;;22.50;34.80;;;;;;5034682;28;20213;-76
2022/04/18 11:09:26;;;;;;;1.05;1.05;;;22.10;34.50;;;;;;5034321;28;20187;-76
2022/04/18 11:12:05;;;;;;;0.50;0.50;;;21.30;35.50;;;;;;5034977;28;20636;-76
2022/04/18 11:14:51;;;;;;;1.80;0.77;;;20.90;36.60;;;;;;5035127;28;20592;-76
2022/04/18 11:17:30;;;;;;;0.60;0.60;;;20.50;37.50;;;;;;5034150;28;20639;-75
2022/04/18 11:19:57;;;;;;;1.07;0.83;;;20.20;35.80;;;;;;5034610;28;20450;-75
2022/04/18 11:22:25;;;;;;;1.23;1.13;;;19.70;37.20;;;;;;5033624;28;20466;-74
2022/04/18 11:25:03;;;;;;;0.50;0.50;;;19.40;37.40;;;;;;5034312;28;20439;-76
2022/04/18 11:27:37;;;;;;;0.93;0.67;;;18.90;38.00;;;;;;5034143;28;20489;-76
2022/04/18 11:30:09;;;;;;;2.20;0.70;;;18.60;39.20;;;;;;5034328;28;20453;-76
2022/04/18 11:32:37;;;;;;;1.70;0.67;;;18.60;40.00;;;;;;5034340;28;20463;-75
2022/04/18 11:35:06;;;;;;;1.43;0.70;;;18.60;39.40;;;;;;5033992;28;20490;-75
2022/04/18 11:37:36;;;;;;;0.60;0.50;;;18.30;37.80;;;;;;5034049;28;20520;-75
2022/04/18 11:40:05;;;;;;;0.43;0.43;;;18.10;38.40;;;;;;5033715;28;20947;-75
2022/04/18 11:42:33;;;;;;;0.50;0.50;;;17.90;39.40;;;;;;5033856;28;20471;-75
2022/04/18 11:45:02;;;;;;;0.80;0.80;;;17.90;39.00;;;;;;5033523;28;20482;-75
2022/04/18 11:47:31;;;;;;;0.50;0.50;;;17.80;38.80;;;;;;5033857;28;20450;-75
2022/04/18 11:50:00;;;;;;;0.60;0.60;;;17.70;37.70;;;;;;5033765;28;20470;-75
2022/04/18 11:52:29;;;;;;;1.27;0.70;;;17.60;38.60;;;;;;5033575;28;20470;-75
2022/04/18 11:55:01;;;;;;;0.63;0.63;;;17.60;39.20;;;;;;5033654;28;20486;-75
2022/04/18 11:57:29;;;;;;;0.40;0.40;;;17.60;39.90;;;;;;5033781;28;20435;-76
2022/04/18 11:59:57;;;;;;;0.60;0.50;;;17.70;39.40;;;;;;5033695;28;20447;-75
2022/04/18 12:08:00;;;;;;;0.73;0.73;;;17.20;38.90;;;;;;5032963;28;20488;-76
2022/04/18 12:10:28;;;;;;;0.50;0.43;;;17.10;38.80;;;;;;5033557;28;20534;-75
2022/04/18 12:12:56;;;;;;;0.60;0.40;;;17.00;38.80;;;;;;5033289;28;20482;-76
2022/04/18 12:15:24;;;;;;;1.00;0.47;;;16.90;39.10;;;;;;5033372;28;20478;-76
2022/04/18 12:17:51;;;;;;;2.00;0.80;;;16.80;40.20;;;;;;5033478;28;20457;-77
2022/04/18 12:20:28;;;;;;;0.40;0.40;;;16.70;40.90;;;;;;5033118;28;21025;-76
2022/04/18 12:22:58;;;;;;;0.67;0.43;;;16.70;40.70;;;;;;5033447;28;20791;-76
2022/04/18 12:25:27;;;;;;;0.70;0.50;;;16.70;39.80;;;;;;5034164;28;20455;-78
2022/04/18 12:27:54;;;;;;;0.57;0.50;;;16.70;40.30;;;;;;5033107;28;20976;-77
2022/04/18 12:30:22;;;;;;;0.50;0.50;;;16.60;40.60;;;;;;5033032;28;20454;-77
2022/04/18 12:32:49;;;;;;;2.17;0.63;;;16.30;41.00;;;;;;5033085;28;20498;-76
2022/04/18 12:35:32;;;;;;;0.93;0.40;;;16.10;41.10;;;;;;5036309;28;21020;-77
2022/04/18 12:38:03;;;;;;;0.40;0.37;;;15.80;40.50;;;;;;5037496;28;20454;-78
2022/04/18 12:40:35;;;;;;;1.83;1.73;;;15.60;40.90;;;;;;5037387;28;20430;-77
2022/04/18 12:43:06;;;;;;;0.60;0.53;;;15.60;41.90;;;;;;5037492;28;20445;-77
2022/04/18 12:45:45;;;;;;;1.47;0.40;;;15.60;42.50;;;;;;5037092;28;20423;-77
2022/04/18 12:48:12;;;;;;;1.57;0.87;;;15.50;42.00;;;;;;5037603;28;20438;-77
2022/04/18 12:50:40;;;;;;;0.80;0.40;;;15.60;42.00;;;;;;5037410;28;20447;-77
2022/04/18 12:53:08;;;;;;;0.60;0.40;;;15.40;42.60;;;;;;5037275;28;20451;-77
2022/04/18 12:55:35;;;;;;;1.53;0.60;;;15.20;43.10;;;;;;5036868;28;20599;-76
2022/04/18 12:58:03;;;;;;;0.90;0.40;;;15.20;43.30;;;;;;5037159;28;20454;-77
2022/04/18 13:00:37;;;;;;;0.30;0.30;;;15.20;43.00;;;;;;5036684;28;20537;-77
2022/04/18 13:03:05;;;;;;;0.40;0.33;;;15.20;43.10;;;;;;5036965;28;20486;-75
2022/04/18 13:05:34;;;;;;;0.70;0.60;;;15.10;43.90;;;;;;5036900;28;20446;-77
2022/04/18 13:08:02;;;;;;;0.50;0.50;;;15.30;44.10;;;;;;5036893;28;20450;-76
2022/04/18 13:10:33;;;;;;;1.77;0.57;;;15.20;43.00;;;;;;5036770;28;20457;-76
2022/04/18 13:13:02;;;;;;;0.40;0.30;;;15.20;43.40;;;;;;5036518;28;20811;-76
2022/04/18 13:15:29;;;;;;;0.50;0.50;;;15.20;44.00;;;;;;5037163;28;20834;-75
2022/04/18 13:17:57;;;;;;;0.60;0.50;;;15.20;43.00;;;;;;5036312;28;20549;-78
2022/04/18 13:20:24;;;;;;;0.50;0.50;;;15.20;43.60;;;;;;5036511;28;20435;-77
2022/04/18 13:22:51;;;;;;;1.93;0.40;;;15.20;43.50;;;;;;5036558;28;20802;-76
2022/04/18 13:25:18;;;;;;;0.50;0.40;;;15.30;43.50;;;;;;5036555;28;20886;-76
2022/04/18 13:27:47;;;;;;;1.90;0.43;;;15.30;44.10;;;;;;5036485;28;20444;-77